Shin Puropan Maru — JG5508 — position and weather

sailwx.info

Track history (hours):
 
Tides and Currents Weather Stations Pressure Air Temp Water Temp Dewpoint Dewpoint Depression Visibility Wind Speed Wind Dir Waves Ship Positions

Shin Puropan Maru

Last reported at 2015-Aug-02 21:29 UTC. Time now 2015-Aug-02 22:28 UTC.
Position N 35°33' E 140°05'.

Length 66 m; draft 3.6 m.

Type: Ship (hazmat cat A). MMSI: 431100348.

Date/timePositionNaut miles runAvg speedWind from/ knotsBaromVisibWave heightAir tempDewpointWater temp
2015-Aug-02 21:29N 35°33' E 140°05'0 0.0
2015-Aug-02 20:32N 35°33' E 140°05'0 0.0
2015-Aug-02 19:32N 35°33' E 140°05'0 0.0
2015-Aug-02 18:26N 35°33' E 140°05'0 0.0
2015-Aug-02 17:32N 35°33' E 140°05'0 0.0
2015-Aug-02 16:32N 35°33' E 140°05'0 0.0
2015-Aug-02 15:11N 35°33' E 140°05'0 0.1
2015-Aug-02 14:32N 35°33' E 140°05'0 0.1
2015-Aug-02 13:32N 35°33' E 140°05'0 0.0
2015-Aug-02 12:29N 35°33' E 140°05'0 0.0
2015-Aug-02 11:23N 35°33' E 140°05'0 0.1
2015-Aug-02 10:32N 35°33' E 140°05'8 8.0
2015-Aug-02 09:33N 35°31' E 139°56'1312.8
2015-Aug-02 08:33N 35°22' E 139°45'1212.3
2015-Aug-02 07:33N 35°09' E 139°46'24411.0
2015-Aug-01 09:23N 34°06' E 134°60'8 0.8
2015-Jul-31 23:12N 34°15' E 134°59'812.9
2015-Jul-31 22:33N 34°06' E 135°00'3 0.1
2015-Jul-30 09:26N 34°09' E 134°60'2010.2
2015-Jul-30 07:31N 34°27' E 135°09'1212.4
2015-Jul-30 06:34N 34°35' E 135°19'5 1.3
2015-Jul-30 02:33N 34°34' E 135°26'8 8.1
2015-Jul-30 01:32N 34°32' E 135°16'1211.4
2015-Jul-30 00:32N 34°24' E 135°06'1110.6
2015-Jul-29 23:29N 34°14' E 134°60'  
2015-Jul-27 16:33N 35°03' E 139°33'1211.7
2015-Jul-27 15:33N 35°10' E 139°44'1111.0
2015-Jul-27 14:33N 35°21' E 139°43'1010.3
2015-Jul-27 13:33N 35°31' E 139°46'1 0.6
2015-Jul-27 12:30N 35°31' E 139°46'0 0.0
2015-Jul-27 11:30N 35°31' E 139°46'0 0.0
2015-Jul-27 10:30N 35°31' E 139°46'0 0.0
2015-Jul-27 09:27N 35°31' E 139°46'0 0.0
2015-Jul-27 07:21N 35°31' E 139°46'0 0.0
2015-Jul-27 06:27N 35°31' E 139°46'0 0.0
2015-Jul-27 05:33N 35°31' E 139°46'0 0.0
2015-Jul-27 04:30N 35°31' E 139°46'1 0.6
2015-Jul-27 03:33N 35°31' E 139°46'1110.9
2015-Jul-27 02:33N 35°32' E 139°59'5 4.6
2015-Jul-27 01:33N 35°33' E 140°05'0 0.0
2015-Jul-27 00:30N 35°33' E 140°05'0 0.0
2015-Jul-26 23:24N 35°33' E 140°05'0 0.1
2015-Jul-26 22:33N 35°33' E 140°05'1 0.8
2015-Jul-26 21:33N 35°33' E 140°05'0 0.0
2015-Jul-26 20:27N 35°33' E 140°05'0 0.0
2015-Jul-26 19:21N 35°33' E 140°05'0 0.0
2015-Jul-26 18:33N 35°33' E 140°05'0 0.0
2015-Jul-26 17:33N 35°33' E 140°05'0 0.0
2015-Jul-26 16:27N 35°33' E 140°05'0 0.0
2015-Jul-26 15:33N 35°33' E 140°05'0 0.0
2015-Jul-26 14:33N 35°33' E 140°05'0 0.0
2015-Jul-26 13:33N 35°33' E 140°05'0 0.0
2015-Jul-26 12:33N 35°33' E 140°05'0 0.0
2015-Jul-26 11:33N 35°33' E 140°05'0 0.0
2015-Jul-26 10:27N 35°33' E 140°05'0 0.0
2015-Jul-26 09:33N 35°34' E 140°05'0 0.0
2015-Jul-26 07:09N 35°33' E 140°05'0 0.0
2015-Jul-26 06:33N 35°33' E 140°05'0 0.1
2015-Jul-26 05:33N 35°33' E 140°05'0 0.0
2015-Jul-26 04:33N 35°33' E 140°05'0 0.0
2015-Jul-26 03:33N 35°33' E 140°05'0 0.0
2015-Jul-26 02:30N 35°33' E 140°05'0 0.0
2015-Jul-26 01:33N 35°33' E 140°05'0 0.0
2015-Jul-26 00:21N 35°33' E 140°05'0 0.0
2015-Jul-25 23:27N 35°33' E 140°05'0 0.0
2015-Jul-25 22:21N 35°33' E 140°05'0 0.0
2015-Jul-25 20:27N 35°33' E 140°05'0 0.1
2015-Jul-25 19:33N 35°33' E 140°05'0 0.0
2015-Jul-25 18:32N 35°33' E 140°05'9 8.9
2015-Jul-25 17:33N 35°31' E 139°55'1212.0
2015-Jul-25 16:34N 35°22' E 139°45'1111.1
2015-Jul-25 15:33N 35°11' E 139°47'1212.2
2015-Jul-25 14:33N 35°01' E 139°38'5 0.2
2015-Jul-24 06:23N 35°02' E 139°31'1011.5
2015-Jul-24 05:33N 35°07' E 139°41'1010.5
2015-Jul-24 04:33N 35°17' E 139°44'1010.4
2015-Jul-24 03:33N 35°27' E 139°48'1212.4
2015-Jul-24 02:33N 35°33' E 140°01'3 3.2
2015-Jul-24 01:33N 35°33' E 140°05'0 0.0
2015-Jul-24 00:33N 35°33' E 140°05'0 0.0
2015-Jul-23 23:33N 35°33' E 140°05'1 0.9
2015-Jul-23 22:33N 35°33' E 140°05'  
Track history (hours):
 
Tides and Currents Weather Stations Pressure Air Temp Water Temp Dewpoint Dewpoint Depression Visibility Wind Speed Wind Dir Waves Ship Positions

Shin Puropan Maru

Last reported at 2015-Aug-02 21:29 UTC. Time now 2015-Aug-02 22:28 UTC.
Position N 35°33' E 140°05'.

Length 66 m; draft 3.6 m.

Type: Ship (hazmat cat A). MMSI: 431100348.

Date/timePositionNaut miles runAvg speedWind from/ knotsBaromVisibWave heightAir tempDewpointWater temp
2015-Aug-02 21:29N 35°33' E 140°05'0 0.0
2015-Aug-02 20:32N 35°33' E 140°05'0 0.0
2015-Aug-02 19:32N 35°33' E 140°05'0 0.0
2015-Aug-02 18:26N 35°33' E 140°05'0 0.0
2015-Aug-02 17:32N 35°33' E 140°05'0 0.0
2015-Aug-02 16:32N 35°33' E 140°05'0 0.0
2015-Aug-02 15:11N 35°33' E 140°05'0 0.1
2015-Aug-02 14:32N 35°33' E 140°05'0 0.1
2015-Aug-02 13:32N 35°33' E 140°05'0 0.0
2015-Aug-02 12:29N 35°33' E 140°05'0 0.0
2015-Aug-02 11:23N 35°33' E 140°05'0 0.1
2015-Aug-02 10:32N 35°33' E 140°05'8 8.0
2015-Aug-02 09:33N 35°31' E 139°56'1312.8
2015-Aug-02 08:33N 35°22' E 139°45'1212.3
2015-Aug-02 07:33N 35°09' E 139°46'24411.0
2015-Aug-01 09:23N 34°06' E 134°60'8 0.8
2015-Jul-31 23:12N 34°15' E 134°59'812.9
2015-Jul-31 22:33N 34°06' E 135°00'3 0.1
2015-Jul-30 09:26N 34°09' E 134°60'2010.2
2015-Jul-30 07:31N 34°27' E 135°09'1212.4
2015-Jul-30 06:34N 34°35' E 135°19'5 1.3
2015-Jul-30 02:33N 34°34' E 135°26'8 8.1
2015-Jul-30 01:32N 34°32' E 135°16'1211.4
2015-Jul-30 00:32N 34°24' E 135°06'1110.6
2015-Jul-29 23:29N 34°14' E 134°60'  
2015-Jul-27 16:33N 35°03' E 139°33'1211.7
2015-Jul-27 15:33N 35°10' E 139°44'1111.0
2015-Jul-27 14:33N 35°21' E 139°43'1010.3
2015-Jul-27 13:33N 35°31' E 139°46'1 0.6
2015-Jul-27 12:30N 35°31' E 139°46'0 0.0
2015-Jul-27 11:30N 35°31' E 139°46'0 0.0
2015-Jul-27 10:30N 35°31' E 139°46'0 0.0
2015-Jul-27 09:27N 35°31' E 139°46'0 0.0
2015-Jul-27 07:21N 35°31' E 139°46'0 0.0
2015-Jul-27 06:27N 35°31' E 139°46'0 0.0
2015-Jul-27 05:33N 35°31' E 139°46'0 0.0
2015-Jul-27 04:30N 35°31' E 139°46'1 0.6
2015-Jul-27 03:33N 35°31' E 139°46'1110.9
2015-Jul-27 02:33N 35°32' E 139°59'5 4.6
2015-Jul-27 01:33N 35°33' E 140°05'0 0.0
2015-Jul-27 00:30N 35°33' E 140°05'0 0.0
2015-Jul-26 23:24N 35°33' E 140°05'0 0.1
2015-Jul-26 22:33N 35°33' E 140°05'1 0.8
2015-Jul-26 21:33N 35°33' E 140°05'0 0.0
2015-Jul-26 20:27N 35°33' E 140°05'0 0.0
2015-Jul-26 19:21N 35°33' E 140°05'0 0.0
2015-Jul-26 18:33N 35°33' E 140°05'0 0.0
2015-Jul-26 17:33N 35°33' E 140°05'0 0.0
2015-Jul-26 16:27N 35°33' E 140°05'0 0.0
2015-Jul-26 15:33N 35°33' E 140°05'0 0.0
2015-Jul-26 14:33N 35°33' E 140°05'0 0.0
2015-Jul-26 13:33N 35°33' E 140°05'0 0.0
2015-Jul-26 12:33N 35°33' E 140°05'0 0.0
2015-Jul-26 11:33N 35°33' E 140°05'0 0.0
2015-Jul-26 10:27N 35°33' E 140°05'0 0.0
2015-Jul-26 09:33N 35°34' E 140°05'0 0.0
2015-Jul-26 07:09N 35°33' E 140°05'0 0.0
2015-Jul-26 06:33N 35°33' E 140°05'0 0.1
2015-Jul-26 05:33N 35°33' E 140°05'0 0.0
2015-Jul-26 04:33N 35°33' E 140°05'0 0.0
2015-Jul-26 03:33N 35°33' E 140°05'0 0.0
2015-Jul-26 02:30N 35°33' E 140°05'0 0.0
2015-Jul-26 01:33N 35°33' E 140°05'0 0.0
2015-Jul-26 00:21N 35°33' E 140°05'0 0.0
2015-Jul-25 23:27N 35°33' E 140°05'0 0.0
2015-Jul-25 22:21N 35°33' E 140°05'0 0.0
2015-Jul-25 20:27N 35°33' E 140°05'0 0.1
2015-Jul-25 19:33N 35°33' E 140°05'0 0.0
2015-Jul-25 18:32N 35°33' E 140°05'9 8.9
2015-Jul-25 17:33N 35°31' E 139°55'1212.0
2015-Jul-25 16:34N 35°22' E 139°45'1111.1
2015-Jul-25 15:33N 35°11' E 139°47'1212.2
2015-Jul-25 14:33N 35°01' E 139°38'5 0.2
2015-Jul-24 06:23N 35°02' E 139°31'1011.5
2015-Jul-24 05:33N 35°07' E 139°41'1010.5
2015-Jul-24 04:33N 35°17' E 139°44'1010.4
2015-Jul-24 03:33N 35°27' E 139°48'1212.4
2015-Jul-24 02:33N 35°33' E 140°01'3 3.2
2015-Jul-24 01:33N 35°33' E 140°05'0 0.0
2015-Jul-24 00:33N 35°33' E 140°05'0 0.0
2015-Jul-23 23:33N 35°33' E 140°05'1 0.9
2015-Jul-23 22:33N 35°33' E 140°05'  

Dump ship's entire track history